createdAt,value
2018-06-15T00:00:51.766Z,9.17
2018-06-15T00:03:20.196Z,9.70
2018-06-15T00:05:48.615Z,9.03
2018-06-15T00:08:17.029Z,9.70
2018-06-15T00:10:45.503Z,10.40
2018-06-15T00:13:13.614Z,9.60
2018-06-15T00:15:42.086Z,10.00
2018-06-15T00:18:10.220Z,11.17
2018-06-15T00:20:38.348Z,11.20
2018-06-15T00:23:06.792Z,10.60
2018-06-15T00:25:35.009Z,9.53
2018-06-15T00:28:03.126Z,10.13
2018-06-15T00:30:31.578Z,12.17
2018-06-15T00:32:59.754Z,11.23
2018-06-15T00:35:27.956Z,10.57
2018-06-15T00:37:56.418Z,11.30
2018-06-15T00:40:24.848Z,10.47
2018-06-15T00:42:53.514Z,12.10
2018-06-15T00:45:22.017Z,10.10
2018-06-15T00:47:50.452Z,10.23
2018-06-15T00:50:18.907Z,11.00
2018-06-15T00:52:47.336Z,9.30
2018-06-15T00:55:15.510Z,10.90
2018-06-15T00:57:46.294Z,9.90
2018-06-15T01:00:15.237Z,10.70
2018-06-15T01:02:43.383Z,11.93
2018-06-15T01:05:12.092Z,11.30
2018-06-15T01:07:40.274Z,11.50
2018-06-15T01:10:08.877Z,11.23
2018-06-15T01:12:37.339Z,12.37
2018-06-15T01:15:06.343Z,12.73
2018-06-15T01:17:34.482Z,12.93
2018-06-15T01:20:02.671Z,11.17
2018-06-15T01:22:31.189Z,10.77
2018-06-15T01:24:59.701Z,11.33
2018-06-15T01:27:27.917Z,10.93
2018-06-15T01:29:56.065Z,11.60
2018-06-15T01:32:24.579Z,12.67
2018-06-15T01:34:52.684Z,12.47
2018-06-15T01:37:21.338Z,11.77
2018-06-15T01:39:49.473Z,11.50
2018-06-15T01:42:17.888Z,11.60
2018-06-15T01:44:46.508Z,10.83
2018-06-15T01:47:14.985Z,11.00
2018-06-15T01:49:43.135Z,10.10
2018-06-15T01:52:11.553Z,12.20
2018-06-15T01:54:39.769Z,11.03
2018-06-15T01:57:07.980Z,10.30
2018-06-15T01:59:36.493Z,12.53
2018-06-15T02:02:05.000Z,11.37
2018-06-15T02:04:33.431Z,9.60
2018-06-15T02:07:01.634Z,13.20
2018-06-15T02:09:29.798Z,11.67
2018-06-15T02:11:57.944Z,10.60
2018-06-15T02:14:26.402Z,11.43
2018-06-15T02:16:54.887Z,13.00
2018-06-15T02:19:23.054Z,11.67
2018-06-15T02:21:51.165Z,10.70
2018-06-15T02:24:19.288Z,11.57
2018-06-15T02:26:47.726Z,11.77
2018-06-15T02:29:15.872Z,10.13
2018-06-15T02:31:44.279Z,12.50
2018-06-15T02:34:12.409Z,12.23
2018-06-15T02:36:40.974Z,12.40
2018-06-15T02:39:10.496Z,11.77
2018-06-15T02:41:39.114Z,11.63
2018-06-15T02:44:07.451Z,11.03
2018-06-15T02:46:36.076Z,14.13
2018-06-15T02:49:04.701Z,12.57
2018-06-15T02:51:33.172Z,10.77
2018-06-15T02:54:01.617Z,12.20
2018-06-15T02:56:30.225Z,11.40
2018-06-15T02:58:58.523Z,9.97
2018-06-15T03:01:26.996Z,9.77
2018-06-15T03:03:55.575Z,11.83
2018-06-15T03:06:24.461Z,11.23
2018-06-15T03:08:53.127Z,11.53
2018-06-15T03:11:21.312Z,10.20
2018-06-15T03:13:49.876Z,9.90
2018-06-15T03:16:18.000Z,11.37
2018-06-15T03:18:46.135Z,10.27
2018-06-15T03:21:14.685Z,10.47
2018-06-15T03:23:42.832Z,10.40
2018-06-15T03:26:10.980Z,10.13
2018-06-15T03:28:39.411Z,10.97
2018-06-15T03:31:07.571Z,11.13
2018-06-15T03:33:35.992Z,11.17
2018-06-15T03:36:04.122Z,11.10
2018-06-15T03:38:32.218Z,10.10
2018-06-15T03:41:00.719Z,11.43
2018-06-15T03:43:29.356Z,11.20
2018-06-15T03:45:58.036Z,10.93
2018-06-15T03:48:26.903Z,11.07
2018-06-15T03:50:55.517Z,11.20
2018-06-15T03:53:24.179Z,10.53
2018-06-15T03:55:52.616Z,8.77
2018-06-15T03:58:21.033Z,11.30
2018-06-15T04:00:49.503Z,11.40
2018-06-15T04:03:17.839Z,11.30
2018-06-15T04:05:46.029Z,10.93
2018-06-15T04:08:14.289Z,9.97
2018-06-15T04:10:42.708Z,12.03
2018-06-15T04:13:11.136Z,11.97
2018-06-15T04:15:39.550Z,13.00
2018-06-15T04:18:08.639Z,10.10
2018-06-15T04:20:38.373Z,12.20
2018-06-15T04:23:07.172Z,11.77
2018-06-15T04:25:35.747Z,10.93
2018-06-15T04:28:03.877Z,11.27
2018-06-15T04:30:32.431Z,13.13
2018-06-15T04:33:00.937Z,12.10
2018-06-15T04:35:29.924Z,12.60
2018-06-15T04:37:58.905Z,9.77
2018-06-15T04:40:27.417Z,11.57
2018-06-15T04:42:56.056Z,10.80
2018-06-15T04:45:24.537Z,11.17
2018-06-15T04:47:53.046Z,11.93
2018-06-15T04:50:21.490Z,11.70
2018-06-15T04:52:49.678Z,12.00
2018-06-15T04:55:18.165Z,12.17
2018-06-15T04:57:46.904Z,11.53
2018-06-15T05:00:15.305Z,11.90
2018-06-15T05:02:43.428Z,11.77
2018-06-15T05:05:11.849Z,11.30
2018-06-15T05:07:40.264Z,11.60
2018-06-15T05:10:08.709Z,12.37
2018-06-15T05:12:37.168Z,12.33
2018-06-15T05:15:05.800Z,11.13
2018-06-15T05:17:33.987Z,12.47
2018-06-15T05:20:03.548Z,12.40
2018-06-15T05:22:31.847Z,12.30
2018-06-15T05:25:00.398Z,12.03
2018-06-15T05:27:28.853Z,11.00
2018-06-15T05:29:57.282Z,13.27
2018-06-15T05:32:25.892Z,12.93
2018-06-15T05:34:54.019Z,12.00
2018-06-15T05:37:22.464Z,11.83
2018-06-15T05:39:50.576Z,11.63
2018-06-15T05:42:19.005Z,12.40
2018-06-15T05:44:47.401Z,13.10
2018-06-15T05:47:16.146Z,11.40
2018-06-15T05:49:44.289Z,14.13
2018-06-15T05:52:12.801Z,13.27
2018-06-15T05:54:41.696Z,12.53
2018-06-15T05:57:10.104Z,13.80
2018-06-15T05:59:38.647Z,13.67
2018-06-15T06:02:07.188Z,13.63
2018-06-15T06:04:35.716Z,15.40
2018-06-15T06:07:04.280Z,13.50
2018-06-15T06:09:32.729Z,12.57
2018-06-15T06:12:01.266Z,13.30
2018-06-15T06:14:29.794Z,13.57
2018-06-15T06:16:58.306Z,11.83
2018-06-15T06:19:26.720Z,12.83
2018-06-15T06:21:55.154Z,12.50
2018-06-15T06:24:23.594Z,12.50
2018-06-15T06:26:52.195Z,13.50
2018-06-15T06:29:20.562Z,12.93
2018-06-15T06:31:49.053Z,13.17
2018-06-15T06:34:17.513Z,14.27
2018-06-15T06:36:46.333Z,14.20
2018-06-15T06:39:14.777Z,13.70
2018-06-15T06:41:42.917Z,14.57
2018-06-15T06:44:11.830Z,13.20
2018-06-15T06:46:39.991Z,14.93
2018-06-15T06:49:08.483Z,12.97
2018-06-15T06:51:36.935Z,12.83
2018-06-15T06:54:05.339Z,13.77
2018-06-15T06:56:33.783Z,12.80
2018-06-15T06:59:02.362Z,10.40
2018-06-15T07:01:30.766Z,7.50
2018-06-15T07:03:59.194Z,11.30
2018-06-15T07:06:27.753Z,11.20
2018-06-15T07:08:56.230Z,11.47
2018-06-15T07:11:24.386Z,10.83
2018-06-15T07:13:52.773Z,11.27
2018-06-15T07:16:21.310Z,9.90
2018-06-15T07:18:49.798Z,9.27
2018-06-15T07:21:18.235Z,9.50
2018-06-15T07:23:46.377Z,10.60
2018-06-15T07:26:14.784Z,9.53
2018-06-15T07:28:43.010Z,8.40
2018-06-15T07:31:11.480Z,9.70
2018-06-15T07:33:39.912Z,7.20
2018-06-15T07:36:08.326Z,8.33
2018-06-15T07:38:37.002Z,6.63
2018-06-15T07:41:05.497Z,6.40
2018-06-15T07:43:33.900Z,6.57
2018-06-15T07:46:02.466Z,5.60
2018-06-15T07:48:30.904Z,5.93
2018-06-15T07:50:59.467Z,4.63
2018-06-15T07:53:27.911Z,4.30
2018-06-15T07:55:56.355Z,4.13
2018-06-15T07:58:24.869Z,3.70
2018-06-15T08:00:53.314Z,3.37
2018-06-15T08:03:21.737Z,3.80
2018-06-15T08:05:50.496Z,4.10
2018-06-15T08:08:19.007Z,4.50
2018-06-15T08:10:47.421Z,4.83
2018-06-15T08:13:15.981Z,3.73
2018-06-15T08:15:44.383Z,3.40
2018-06-15T08:18:13.024Z,3.83
2018-06-15T08:20:41.487Z,3.93
2018-06-15T08:23:09.968Z,3.73
2018-06-15T08:25:38.366Z,3.43
2018-06-15T08:28:06.763Z,3.47
2018-06-15T08:30:35.263Z,3.70
2018-06-15T08:33:03.680Z,3.87
2018-06-15T08:35:32.207Z,3.90
2018-06-15T08:38:00.626Z,3.97
2018-06-15T08:40:28.752Z,3.70
2018-06-15T08:42:57.190Z,4.10
2018-06-15T08:45:25.595Z,3.57
2018-06-15T08:47:53.993Z,3.57
2018-06-15T08:50:22.449Z,3.43
2018-06-15T08:52:51.010Z,3.93
2018-06-15T08:55:19.486Z,3.53
2018-06-15T08:57:48.023Z,3.80
2018-06-15T09:00:16.182Z,4.27
2018-06-15T09:02:44.318Z,3.43
2018-06-15T09:05:12.751Z,3.77
2018-06-15T09:07:40.859Z,3.77
2018-06-15T09:10:09.328Z,4.50
2018-06-15T09:12:37.873Z,3.60
2018-06-15T09:15:06.288Z,3.00
2018-06-15T09:17:34.724Z,4.20
2018-06-15T09:20:02.862Z,3.90
2018-06-15T09:22:31.029Z,3.77
2018-06-15T09:24:59.423Z,3.70
2018-06-15T09:27:28.062Z,3.40
2018-06-15T09:29:56.537Z,4.10
2018-06-15T09:32:24.984Z,3.60
2018-06-15T09:34:53.389Z,4.23
2018-06-15T09:37:21.520Z,3.50
2018-06-15T09:39:49.899Z,4.87
2018-06-15T09:42:18.347Z,3.90
2018-06-15T09:44:46.763Z,3.67
2018-06-15T09:47:15.172Z,3.10
2018-06-15T09:49:43.643Z,3.63
2018-06-15T09:52:12.062Z,3.33
2018-06-15T09:54:40.254Z,3.13
2018-06-15T09:57:08.384Z,5.97
2018-06-15T09:59:36.527Z,4.20
2018-06-15T10:02:05.105Z,3.50
2018-06-15T10:04:33.635Z,3.70
2018-06-15T10:07:02.194Z,3.50
2018-06-15T10:09:30.571Z,4.00
2018-06-15T10:11:59.030Z,3.57
2018-06-15T10:14:27.435Z,3.70
2018-06-15T10:16:55.926Z,3.60
2018-06-15T10:19:24.167Z,3.23
2018-06-15T10:21:52.572Z,3.67
2018-06-15T10:24:20.689Z,3.43
2018-06-15T10:26:49.224Z,4.03
2018-06-15T10:29:17.733Z,4.20
2018-06-15T10:31:46.139Z,3.33
2018-06-15T10:34:14.534Z,4.50
2018-06-15T10:36:42.933Z,3.87
2018-06-15T10:39:11.773Z,3.90
2018-06-15T10:41:40.755Z,4.07
2018-06-15T10:44:09.162Z,3.50
2018-06-15T10:46:37.586Z,3.90
2018-06-15T10:49:06.171Z,3.03
2018-06-15T10:51:34.273Z,3.40
2018-06-15T10:54:02.475Z,3.63
2018-06-15T10:56:30.909Z,3.93
2018-06-15T10:58:59.312Z,3.40
2018-06-15T11:01:27.447Z,3.37
2018-06-15T11:03:56.143Z,3.80
2018-06-15T11:06:24.381Z,3.63
2018-06-15T11:08:52.889Z,4.20
2018-06-15T11:11:21.081Z,3.90
2018-06-15T11:13:49.212Z,3.97
2018-06-15T11:16:17.348Z,6.10
2018-06-15T11:18:45.505Z,4.40
2018-06-15T11:21:13.675Z,3.10
2018-06-15T11:23:42.176Z,3.60
2018-06-15T11:26:10.651Z,3.50
2018-06-15T11:28:39.167Z,4.10
2018-06-15T11:31:07.614Z,3.97
2018-06-15T11:33:35.844Z,3.87
2018-06-15T11:36:04.270Z,3.23
2018-06-15T11:38:32.727Z,4.00
2018-06-15T11:41:00.868Z,4.00
2018-06-15T11:43:29.310Z,4.33
2018-06-15T11:45:57.805Z,4.07
2018-06-15T11:48:26.211Z,4.30
2018-06-15T11:50:54.791Z,4.40
2018-06-15T11:53:23.235Z,4.37
2018-06-15T11:55:51.769Z,4.00
2018-06-15T11:58:20.228Z,3.77
2018-06-15T12:00:48.637Z,4.20
2018-06-15T12:03:17.211Z,4.33
2018-06-15T12:05:45.313Z,4.23
2018-06-15T12:08:13.731Z,4.10
2018-06-15T12:10:42.196Z,3.77
2018-06-15T12:13:10.682Z,3.80
2018-06-15T12:15:39.351Z,4.60
2018-06-15T12:18:07.900Z,5.00
2018-06-15T12:20:36.468Z,4.27
2018-06-15T12:23:05.185Z,3.97
2018-06-15T12:25:33.321Z,4.10
2018-06-15T12:28:01.430Z,4.50
2018-06-15T12:30:29.638Z,4.07
2018-06-15T12:32:58.136Z,3.93
2018-06-15T12:35:26.719Z,3.77
2018-06-15T12:37:55.248Z,4.07
2018-06-15T12:40:23.800Z,3.63
2018-06-15T12:42:52.520Z,3.40
2018-06-15T12:45:21.260Z,3.60
2018-06-15T12:47:49.932Z,3.90
2018-06-15T12:50:18.393Z,4.30
2018-06-15T12:52:46.585Z,3.60
2018-06-15T12:55:15.022Z,3.60
2018-06-15T12:57:43.133Z,4.30
2018-06-15T13:00:11.621Z,4.60
2018-06-15T13:02:40.179Z,3.70
2018-06-15T13:05:08.604Z,3.93
2018-06-15T13:07:37.194Z,3.77
2018-06-15T13:10:05.702Z,4.27
2018-06-15T13:12:34.125Z,4.40
2018-06-15T13:15:02.254Z,4.00
2018-06-15T13:17:31.112Z,3.83
2018-06-15T13:19:59.547Z,3.93
2018-06-15T13:22:28.017Z,4.50
2018-06-15T13:24:56.538Z,4.43
2018-06-15T13:27:24.811Z,4.30
2018-06-15T13:29:53.292Z,4.10
2018-06-15T13:32:21.419Z,4.07
2018-06-15T13:34:49.932Z,4.67
2018-06-15T13:37:18.182Z,4.13
2018-06-15T13:39:46.670Z,4.37
2018-06-15T13:42:15.113Z,3.90
2018-06-15T13:44:43.611Z,4.17
2018-06-15T13:47:12.143Z,4.17
2018-06-15T13:49:40.254Z,4.27
2018-06-15T13:52:08.811Z,4.50
2018-06-15T13:54:37.389Z,3.83
2018-06-15T13:57:05.854Z,3.90
2018-06-15T13:59:34.296Z,4.50
2018-06-15T14:02:02.874Z,4.00
2018-06-15T14:04:31.320Z,4.83
2018-06-15T14:06:59.447Z,4.00
2018-06-15T14:09:27.880Z,3.60
2018-06-15T14:11:56.323Z,4.20
2018-06-15T14:14:25.069Z,3.60
2018-06-15T14:16:53.649Z,4.87
2018-06-15T14:19:21.758Z,3.40
2018-06-15T14:21:49.898Z,4.03
2018-06-15T14:24:18.357Z,4.23
2018-06-15T14:26:46.786Z,3.33
2018-06-15T14:29:15.323Z,3.87
2018-06-15T14:31:43.803Z,3.57
2018-06-15T14:34:12.225Z,3.47
2018-06-15T14:36:40.676Z,4.60
2018-06-15T14:39:11.010Z,3.83
2018-06-15T14:41:39.438Z,4.43
2018-06-15T14:44:08.060Z,4.40
2018-06-15T14:46:36.507Z,4.10
2018-06-15T14:49:05.285Z,3.70
2018-06-15T14:51:34.059Z,3.60
2018-06-15T14:54:02.653Z,4.13
2018-06-15T14:56:31.876Z,5.33
2018-06-15T14:59:00.151Z,4.60
2018-06-15T15:01:28.373Z,4.10
2018-06-15T15:03:56.836Z,4.47
2018-06-15T15:06:25.256Z,4.60
2018-06-15T15:08:54.133Z,4.43
2018-06-15T15:11:22.696Z,4.37
2018-06-15T15:13:51.237Z,3.93
2018-06-15T15:16:19.671Z,3.80
2018-06-15T15:18:48.259Z,3.93
2018-06-15T15:21:16.927Z,4.30
2018-06-15T15:23:45.419Z,3.00
2018-06-15T15:26:13.878Z,3.63
2018-06-15T15:28:42.283Z,3.47
2018-06-15T15:31:11.046Z,3.50
2018-06-15T15:33:39.498Z,3.67
2018-06-15T15:36:07.655Z,3.90
2018-06-15T15:38:36.073Z,3.40
2018-06-15T15:41:04.307Z,3.43
2018-06-15T15:43:33.316Z,4.27
2018-06-15T15:46:02.216Z,3.20
2018-06-15T15:48:30.688Z,4.23
2018-06-15T15:50:58.913Z,4.03
2018-06-15T15:53:27.471Z,3.50
2018-06-15T15:55:56.012Z,3.60
2018-06-15T15:58:24.479Z,3.40
2018-06-15T16:00:52.945Z,4.33
2018-06-15T16:03:21.198Z,3.87
2018-06-15T16:05:49.498Z,3.77
2018-06-15T16:08:17.957Z,4.07
2018-06-15T16:10:46.412Z,4.10
2018-06-15T16:13:14.702Z,3.40
2018-06-15T16:15:43.397Z,4.00
2018-06-15T16:18:11.962Z,5.27
2018-06-15T16:20:40.540Z,3.80
2018-06-15T16:23:09.056Z,3.50
2018-06-15T16:25:37.547Z,3.53
2018-06-15T16:28:06.381Z,3.80
2018-06-15T16:30:34.844Z,4.30
2018-06-15T16:33:03.089Z,3.97
2018-06-15T16:35:31.528Z,3.60
2018-06-15T16:37:59.998Z,4.30
2018-06-15T16:40:28.461Z,3.37
2018-06-15T16:42:56.678Z,4.03
2018-06-15T16:45:25.122Z,4.20
2018-06-15T16:47:53.257Z,3.10
2018-06-15T16:50:21.855Z,4.13
2018-06-15T16:52:50.440Z,3.80
2018-06-15T16:55:18.887Z,4.67
2018-06-15T16:57:47.045Z,4.10
2018-06-15T17:00:15.480Z,3.60
2018-06-15T17:02:43.703Z,3.23
2018-06-15T17:05:11.842Z,3.57
2018-06-15T17:07:40.276Z,3.77
2018-06-15T17:10:09.006Z,3.40
2018-06-15T17:12:37.570Z,3.53
2018-06-15T17:15:06.156Z,3.27
2018-06-15T17:17:34.603Z,3.13
2018-06-15T17:20:03.306Z,3.50
2018-06-15T17:22:31.704Z,3.10
2018-06-15T17:25:00.030Z,3.87
2018-06-15T17:27:28.563Z,3.80
2018-06-15T17:29:57.178Z,3.30
2018-06-15T17:32:25.602Z,3.50
2018-06-15T17:34:54.069Z,3.40
2018-06-15T17:37:22.240Z,3.60
2018-06-15T17:39:50.710Z,3.70
2018-06-15T17:42:19.225Z,3.33
2018-06-15T17:44:48.051Z,3.63
2018-06-15T17:47:16.518Z,3.70
2018-06-15T17:49:44.941Z,3.40
2018-06-15T17:52:13.525Z,4.50
2018-06-15T17:54:41.954Z,3.90
2018-06-15T17:57:10.510Z,4.30
2018-06-15T17:59:39.205Z,3.50
2018-06-15T18:02:08.496Z,3.47
2018-06-15T18:04:36.783Z,3.80
2018-06-15T18:07:05.838Z,3.20
2018-06-15T18:09:34.376Z,3.67
2018-06-15T18:12:02.849Z,3.90
2018-06-15T18:14:31.011Z,3.40
2018-06-15T18:16:59.453Z,3.30
2018-06-15T18:19:28.625Z,4.13
2018-06-15T18:21:57.507Z,3.93
2018-06-15T18:24:25.719Z,4.10
2018-06-15T18:26:54.249Z,3.50
2018-06-15T18:29:22.868Z,3.70
2018-06-15T18:31:51.715Z,3.70
2018-06-15T18:34:20.513Z,3.97
2018-06-15T18:36:48.639Z,3.30
2018-06-15T18:39:17.100Z,4.67
2018-06-15T18:41:45.262Z,3.77
2018-06-15T18:44:13.428Z,3.73
2018-06-15T18:46:41.977Z,3.60
2018-06-15T18:49:10.155Z,3.93
2018-06-15T18:51:39.522Z,3.70
2018-06-15T18:54:09.500Z,3.60
2018-06-15T18:56:37.699Z,3.43
2018-06-15T18:59:06.278Z,3.33
2018-06-15T19:01:34.819Z,4.07
2018-06-15T19:04:03.334Z,4.37
2018-06-15T19:06:31.813Z,4.37
2018-06-15T19:09:00.979Z,3.80
2018-06-15T19:11:29.287Z,5.17
2018-06-15T19:13:57.519Z,4.47
2018-06-15T19:16:25.872Z,5.00
2018-06-15T19:18:55.028Z,4.27
2018-06-15T19:21:23.903Z,4.80
2018-06-15T19:23:53.695Z,4.90
2018-06-15T19:26:21.915Z,4.43
2018-06-15T19:28:51.187Z,6.03
2018-06-15T19:31:19.432Z,5.53
2018-06-15T19:33:47.739Z,4.90
2018-06-15T19:36:16.585Z,4.23
2018-06-15T19:38:45.119Z,4.87
2018-06-15T19:41:13.919Z,3.87
2018-06-15T19:43:43.025Z,5.97
2018-06-15T19:46:12.536Z,4.80
2018-06-15T19:48:40.721Z,4.40
2018-06-15T19:51:09.261Z,5.30
2018-06-15T19:53:38.954Z,5.03
2018-06-15T19:56:07.616Z,5.07
2018-06-15T19:58:36.069Z,5.27
2018-06-15T20:01:04.353Z,5.57
2018-06-15T20:03:32.947Z,5.20
2018-06-15T20:06:01.193Z,5.70
2018-06-15T20:08:29.609Z,5.60
2018-06-15T20:10:57.794Z,5.13
2018-06-15T20:13:26.435Z,5.63
2018-06-15T20:15:55.131Z,5.57
2018-06-15T20:18:24.444Z,5.70
2018-06-15T20:20:54.095Z,5.83
2018-06-15T20:23:22.905Z,5.60
2018-06-15T20:25:51.223Z,5.50
2018-06-15T20:28:20.015Z,5.97
2018-06-15T20:30:48.602Z,6.33
2018-06-15T20:33:18.121Z,6.13
2018-06-15T20:35:46.302Z,5.90
2018-06-15T20:38:15.049Z,5.90
2018-06-15T20:40:43.584Z,6.10
2018-06-15T20:43:12.161Z,6.53
2018-06-15T20:45:40.795Z,6.43
2018-06-15T20:48:09.093Z,5.50
2018-06-15T20:50:37.307Z,7.13
2018-06-15T20:53:05.592Z,5.90
2018-06-15T20:55:34.151Z,6.17
2018-06-15T20:58:03.176Z,6.50
2018-06-15T21:00:31.364Z,6.80
2018-06-15T21:03:00.412Z,7.30
2018-06-15T21:05:28.609Z,6.43
2018-06-15T21:07:56.813Z,7.90
2018-06-15T21:10:24.991Z,7.50
2018-06-15T21:12:53.565Z,6.40
2018-06-15T21:15:21.712Z,7.73
2018-06-15T21:17:49.881Z,7.10
2018-06-15T21:20:18.027Z,7.00
2018-06-15T21:22:46.190Z,6.53
2018-06-15T21:25:14.683Z,5.90
2018-06-15T21:27:43.139Z,7.10
2018-06-15T21:30:11.309Z,7.10
2018-06-15T21:32:39.511Z,6.37
2018-06-15T21:35:07.973Z,7.43
2018-06-15T21:37:36.164Z,7.27
2018-06-15T21:40:04.341Z,6.57
2018-06-15T21:42:32.875Z,7.63
2018-06-15T21:45:01.106Z,7.87
2018-06-15T21:47:29.689Z,7.80
2018-06-15T21:49:58.182Z,6.90
2018-06-15T21:52:26.325Z,7.97
2018-06-15T21:54:55.322Z,7.20
2018-06-15T21:57:23.814Z,7.90
2018-06-15T21:59:51.931Z,8.40
2018-06-15T22:02:20.501Z,8.40
2018-06-15T22:04:48.625Z,7.33
2018-06-15T22:07:17.082Z,7.13
2018-06-15T22:09:45.647Z,7.77
2018-06-15T22:12:14.368Z,8.07
2018-06-15T22:14:42.800Z,7.50
2018-06-15T22:17:11.313Z,7.80
2018-06-15T22:19:39.792Z,7.73
2018-06-15T22:22:07.941Z,7.73
2018-06-15T22:24:36.109Z,7.70
2018-06-15T22:27:04.247Z,8.13
2018-06-15T22:29:32.755Z,8.17
2018-06-15T22:32:01.544Z,7.83
2018-06-15T22:34:29.924Z,8.17
2018-06-15T22:36:58.591Z,9.63
2018-06-15T22:39:26.779Z,8.33
2018-06-15T22:41:54.911Z,8.83
2018-06-15T22:44:23.032Z,8.10
2018-06-15T22:46:51.146Z,10.27
2018-06-15T22:49:19.566Z,9.40
2018-06-15T22:51:48.069Z,9.17
2018-06-15T22:54:16.289Z,9.30
2018-06-15T22:56:44.448Z,10.60
2018-06-15T22:59:13.007Z,9.30
2018-06-15T23:01:41.269Z,11.10
2018-06-15T23:04:09.690Z,8.83
2018-06-15T23:06:38.016Z,8.83
2018-06-15T23:09:06.927Z,8.77
2018-06-15T23:11:35.432Z,8.43
2018-06-15T23:14:04.006Z,10.50
2018-06-15T23:16:32.136Z,10.50
2018-06-15T23:19:00.360Z,10.13
2018-06-15T23:21:28.919Z,10.70
2018-06-15T23:23:57.071Z,9.70
2018-06-15T23:26:25.220Z,9.30
2018-06-15T23:28:53.344Z,10.97
2018-06-15T23:31:21.455Z,10.70
2018-06-15T23:33:49.646Z,9.80
2018-06-15T23:36:17.746Z,10.27
2018-06-15T23:38:45.978Z,11.27
2018-06-15T23:41:14.620Z,11.53
2018-06-15T23:43:42.758Z,9.60
2018-06-15T23:46:11.227Z,9.67
2018-06-15T23:48:39.376Z,10.07
2018-06-15T23:51:07.882Z,9.67
2018-06-15T23:53:36.491Z,9.07
2018-06-15T23:56:04.894Z,10.00
2018-06-15T23:58:33.017Z,10.77
